Time;durP1;ratioP1;P1;durP2;ratioP2;P2;SDS_P1;SDS_P2;PMS_P1;PMS_P2;Temp;Humidity;BMP_temperature;BMP_pressure;BME280_temperature;BME280_humidity;BME280_pressure;Samples;Min_cycle;Max_cycle;Signal;HPM_P1;HPM_P2
2022/07/26 00:01:00;;;;;;;2.45;2.25;;;;;;;22.95;59.78;96652.03;10416299;28;20470;-22
2022/07/26 00:06:01;;;;;;;2.37;2.10;;;;;;;22.97;59.70;96665.59;10415018;28;20159;-24
2022/07/26 00:11:01;;;;;;;7.67;2.50;;;;;;;22.97;59.52;96660.50;10424662;28;20054;-24
2022/07/26 00:16:02;;;;;;;2.20;2.00;;;;;;;23.21;58.62;96659.22;10419208;28;20522;-22
2022/07/26 00:21:03;;;;;;;2.58;2.38;;;;;;;23.31;58.18;96653.91;10416010;28;20119;-23
2022/07/26 00:26:03;;;;;;;3.55;2.00;;;;;;;23.16;59.04;96666.97;10412453;28;20533;-23
2022/07/26 00:31:04;;;;;;;1.93;1.83;;;;;;;23.07;59.22;96662.00;10412152;28;20033;-23
2022/07/26 00:36:05;;;;;;;2.08;1.88;;;;;;;23.02;59.44;96668.06;10415344;28;20032;-23
2022/07/26 00:41:06;;;;;;;2.20;2.05;;;;;;;23.00;59.63;96672.38;10416373;28;20119;-24
2022/07/26 00:46:06;;;;;;;4.80;2.03;;;;;;;22.98;59.36;96672.41;10412011;28;20029;-23
2022/07/26 00:51:06;;;;;;;2.77;2.30;;;;;;;22.96;59.62;96676.69;10418915;28;20383;-21
2022/07/26 00:56:07;;;;;;;2.38;1.77;;;;;;;23.05;59.04;96670.56;10412747;28;20443;-23
2022/07/26 01:01:08;;;;;;;4.38;2.40;;;;;;;23.29;58.53;96670.97;10413532;28;20030;-22
2022/07/26 01:06:09;;;;;;;2.50;1.85;;;;;;;23.27;58.58;96669.31;10415650;28;20085;-22
2022/07/26 01:11:09;;;;;;;1.92;1.83;;;;;;;23.12;59.08;96669.56;10416756;28;20164;-23
2022/07/26 01:16:09;;;;;;;2.47;1.83;;;;;;;23.05;59.42;96671.41;10414023;28;20040;-24
2022/07/26 01:21:11;;;;;;;3.43;2.10;;;;;;;23.02;59.49;96674.03;10414789;28;20135;-21
2022/07/26 01:26:11;;;;;;;2.95;1.67;;;;;;;23.02;59.61;96680.84;10414799;28;20440;-23
2022/07/26 01:31:12;;;;;;;1.70;1.60;;;;;;;22.99;59.61;96679.19;10414162;28;20029;-23
2022/07/26 01:36:12;;;;;;;2.20;2.00;;;;;;;22.99;59.84;96680.91;10423657;28;20040;-22
2022/07/26 01:41:13;;;;;;;2.70;1.60;;;;;;;23.10;58.87;96664.53;10424785;28;20033;-23
2022/07/26 01:46:14;;;;;;;1.80;1.70;;;;;;;23.31;58.50;96670.97;10421290;28;20029;-23
2022/07/26 01:51:14;;;;;;;1.60;1.50;;;;;;;23.23;58.73;96673.66;10419718;28;20033;-23
2022/07/26 01:56:14;;;;;;;2.13;1.92;;;;;;;23.10;59.30;96681.53;10420557;28;20578;-22
2022/07/26 02:01:15;;;;;;;1.70;1.60;;;;;;;23.04;59.37;96682.50;10422162;28;20060;-23
2022/07/26 02:06:15;;;;;;;2.47;1.83;;;;;;;23.02;59.61;96678.28;10421936;28;20130;-23
2022/07/26 02:11:15;;;;;;;1.90;1.80;;;;;;;22.98;59.55;96682.59;10411006;28;20025;-21
2022/07/26 02:16:16;;;;;;;1.70;1.60;;;;;;;22.99;59.61;96683.47;10414002;28;20100;-22
2022/07/26 02:21:16;;;;;;;1.88;1.77;;;;;;;22.96;59.66;96674.13;10421306;28;20295;-22
2022/07/26 02:26:17;;;;;;;1.77;1.63;;;;;;;23.15;58.64;96667.84;10419843;28;20037;-22
2022/07/26 02:31:17;;;;;;;1.80;1.70;;;;;;;23.30;58.42;96662.44;10414766;28;20545;-21
2022/07/26 02:36:17;;;;;;;1.87;1.77;;;;;;;23.17;58.59;96660.97;10421122;28;20033;-21
2022/07/26 02:41:18;;;;;;;1.63;1.53;;;;;;;23.07;59.39;96662.00;10423248;28;20488;-23
2022/07/26 02:46:18;;;;;;;1.50;1.40;;;;;;;23.02;59.35;96663.81;10417940;28;20055;-22
2022/07/26 02:51:18;;;;;;;1.67;1.57;;;;;;;23.01;59.52;96672.34;10417175;28;20030;-24
2022/07/26 02:56:20;;;;;;;1.98;1.88;;;;;;;22.99;59.61;96658.75;10421147;28;20037;-23
2022/07/26 03:01:20;;;;;;;1.85;1.52;;;;;;;22.97;59.60;96655.41;10422642;28;20047;-22
2022/07/26 03:06:21;;;;;;;2.00;1.80;;;;;;;22.98;59.39;96667.28;10416356;28;20030;-23
2022/07/26 03:11:21;;;;;;;1.50;1.33;;;;;;;23.21;58.62;96661.78;10418657;28;20028;-23
2022/07/26 03:16:21;;;;;;;1.83;1.60;;;;;;;23.26;58.75;96668.50;10418721;28;20037;-23
2022/07/26 03:21:22;;;;;;;1.53;1.40;;;;;;;23.15;58.92;96669.56;10421687;28;20354;-23
2022/07/26 03:26:22;;;;;;;1.70;1.60;;;;;;;23.06;59.33;96668.00;10412235;28;20115;-23
2022/07/26 03:31:24;;;;;;;1.77;1.30;;;;;;;23.02;59.34;96671.47;10417316;28;20160;-20
2022/07/26 03:36:24;;;;;;;1.67;1.58;;;;;;;23.00;59.43;96680.03;10423996;28;20029;-21
2022/07/26 03:41:25;;;;;;;2.03;1.50;;;;;;;22.99;59.58;96676.63;10415837;28;20041;-23
2022/07/26 03:46:25;;;;;;;2.63;1.00;;;;;;;23.04;58.58;96674.84;10414715;28;20033;-22
2022/07/26 03:51:25;;;;;;;2.20;1.10;;;;;;;23.64;56.22;96676.22;10419097;28;20083;-22
2022/07/26 03:56:32;;;;;;;2.20;1.20;;;;;;;23.73;55.35;96676.03;10408468;28;20598;-22
2022/07/26 04:01:33;;;;;;;1.65;1.08;;;;;;;23.66;55.78;96674.47;10405551;28;20323;-25
2022/07/26 04:06:35;;;;;;;0.95;0.77;;;;;;;23.72;55.30;96674.34;10417707;28;20029;-25
2022/07/26 04:11:35;;;;;;;2.50;1.50;;;;;;;23.73;55.21;96675.19;10413442;28;20037;-27
2022/07/26 04:16:36;;;;;;;2.00;1.00;;;;;;;23.71;55.29;96670.09;10419152;28;20044;-24
2022/07/26 04:21:36;;;;;;;4.57;1.33;;;;;;;23.68;55.48;96682.97;10414985;28;20299;-23
2022/07/26 04:26:37;;;;;;;3.33;1.03;;;;;;;23.63;55.86;96677.09;10410411;28;20037;-24
2022/07/26 04:31:37;;;;;;;3.22;1.10;;;;;;;23.62;56.16;96675.41;10411485;28;20300;-22
2022/07/26 04:36:37;;;;;;;1.20;1.10;;;;;;;23.74;55.68;96677.69;10418702;28;20042;-24
2022/07/26 04:41:38;;;;;;;1.40;1.10;;;;;;;23.65;55.91;96677.91;10412314;28;20063;-24
2022/07/26 04:46:38;;;;;;;1.63;1.23;;;;;;;23.69;56.19;96673.56;10412339;28;20291;-24
2022/07/26 04:51:38;;;;;;;5.23;1.00;;;;;;;23.62;56.55;96674.56;10416529;28;20037;-24
2022/07/26 04:56:39;;;;;;;2.30;1.20;;;;;;;23.49;57.07;96681.63;10412634;28;20099;-23
2022/07/26 05:01:39;;;;;;;6.80;1.50;;;;;;;23.24;57.95;96693.22;10415312;28;20034;-24
2022/07/26 05:06:40;;;;;;;6.10;3.10;;;;;;;23.09;58.56;96690.94;10416806;28;20040;-25
2022/07/26 05:11:40;;;;;;;8.70;1.70;;;;;;;23.02;59.37;96693.63;10419184;28;20579;-24
2022/07/26 05:16:40;;;;;;;1.83;1.50;;;;;;;23.03;59.27;96690.19;10424198;28;20308;-24
2022/07/26 05:21:41;;;;;;;2.43;1.40;;;;;;;23.25;58.34;96692.34;10425457;28;20040;-25
2022/07/26 05:26:41;;;;;;;5.17;1.67;;;;;;;23.24;58.28;96695.75;10422404;28;20383;-24
2022/07/26 05:31:41;;;;;;;14.90;1.90;;;;;;;23.15;58.85;96706.16;10421685;28;20033;-23
2022/07/26 05:36:42;;;;;;;7.63;1.58;;;;;;;23.07;59.07;96707.97;10420908;28;20083;-23
2022/07/26 05:41:42;;;;;;;9.47;1.57;;;;;;;23.03;59.27;96706.38;10425278;28;20045;-24
2022/07/26 05:46:42;;;;;;;5.00;1.40;;;;;;;23.01;59.24;96710.66;10420639;28;20381;-23
2022/07/26 05:51:43;;;;;;;7.37;1.70;;;;;;;22.99;59.39;96709.81;10421388;28;20029;-24
2022/07/26 05:56:43;;;;;;;2.03;1.60;;;;;;;22.98;59.45;96718.34;10419392;28;20396;-24
2022/07/26 06:01:43;;;;;;;1.50;1.20;;;;;;;22.98;59.45;96723.47;10418258;28;20559;-24
2022/07/26 06:06:44;;;;;;;3.50;1.50;;;;;;;23.31;57.79;96715.22;10419545;28;20048;-26
2022/07/26 06:11:44;;;;;;;1.60;1.17;;;;;;;23.32;58.08;96718.63;10421498;28;20117;-24
2022/07/26 06:16:48;;;;;;;2.50;1.10;;;;;;;23.14;58.65;96719.81;10420378;28;20359;-23
2022/07/26 06:21:49;;;;;;;2.42;1.20;;;;;;;23.07;59.10;96722.47;10421760;28;20034;-23
2022/07/26 06:26:51;;;;;;;2.53;1.20;;;;;;;23.03;59.25;96725.94;10418756;28;20060;-24
2022/07/26 06:31:52;;;;;;;1.75;1.10;;;;;;;23.01;59.24;96730.22;10419278;28;20285;-24
2022/07/26 06:36:52;;;;;;;2.33;1.40;;;;;;;22.98;59.52;96727.75;10417253;28;20032;-24
2022/07/26 06:41:53;;;;;;;1.10;1.00;;;;;;;22.95;59.55;96731.19;10421465;28;20052;-26
2022/07/26 06:46:55;;;;;;;2.03;1.15;;;;;;;23.04;58.67;96733.59;10417570;28;20177;-25
2022/07/26 06:51:56;;;;;;;2.20;1.10;;;;;;;23.35;57.69;96728.78;10415400;28;20029;-25
2022/07/26 06:56:57;;;;;;;1.85;1.40;;;;;;;23.24;57.94;96731.53;10421175;28;20481;-24
2022/07/26 07:01:57;;;;;;;1.70;1.20;;;;;;;23.12;58.82;96736.84;10417499;28;20042;-23
2022/07/26 07:07:03;;;;;;;1.50;1.40;;;;;;;22.96;58.87;96714.13;10419317;28;20029;-23
2022/07/26 07:12:05;;;;;;;1.38;1.20;;;;;;;23.01;59.26;96725.97;10419218;28;20306;-25
2022/07/26 07:17:06;;;;;;;3.22;1.30;;;;;;;22.94;59.22;96726.09;10413057;28;20033;-23
2022/07/26 07:22:10;;;;;;;1.80;1.30;;;;;;;22.98;59.38;96730.31;10415931;28;20033;-26
2022/07/26 07:27:10;;;;;;;2.15;1.95;;;;;;;22.97;59.68;96729.44;10420643;28;20029;-23
2022/07/26 07:32:11;;;;;;;1.85;1.35;;;;;;;23.11;58.66;96730.06;10415738;28;20079;-24
2022/07/26 07:37:11;;;;;;;1.92;1.30;;;;;;;23.26;57.98;96727.25;10421864;28;20525;-23
2022/07/26 07:42:12;;;;;;;1.33;1.00;;;;;;;23.20;58.38;96735.03;10417741;28;20033;-25
2022/07/26 07:47:13;;;;;;;1.67;1.10;;;;;;;23.09;58.89;96730.94;10415649;28;20299;-24
2022/07/26 07:52:13;;;;;;;1.55;1.45;;;;;;;23.03;59.04;96729.34;10417033;28;20091;-25
2022/07/26 07:57:13;;;;;;;2.37;1.00;;;;;;;23.00;59.38;96726.81;10417404;28;20086;-24
2022/07/26 08:02:14;;;;;;;1.40;1.30;;;;;;;23.00;59.24;96726.00;10421066;28;20037;-25
2022/07/26 08:07:15;;;;;;;1.48;1.10;;;;;;;22.97;59.26;96723.50;10417811;28;20037;-24
2022/07/26 08:12:16;;;;;;;1.50;1.00;;;;;;;22.98;59.26;96728.56;10412703;28;20036;-24
2022/07/26 08:17:16;;;;;;;1.92;1.38;;;;;;;23.16;58.59;96722.34;10417311;28;20299;-25
2022/07/26 08:22:16;;;;;;;1.17;1.07;;;;;;;23.29;58.05;96726.34;10416902;28;20485;-23
2022/07/26 08:27:17;;;;;;;1.20;0.90;;;;;;;23.17;58.44;96729.94;10412592;28;20069;-22
2022/07/26 08:32:17;;;;;;;2.60;1.50;;;;;;;23.08;58.84;96732.63;10414072;28;20034;-25
2022/07/26 08:37:18;;;;;;;1.00;1.00;;;;;;;23.01;59.26;96725.97;10420253;28;20033;-22
2022/07/26 08:42:21;;;;;;;1.30;1.20;;;;;;;23.01;58.94;96732.78;10414306;28;20029;-23
2022/07/26 08:47:23;;;;;;;2.33;1.25;;;;;;;22.97;59.17;96737.09;10425173;28;20563;-23
2022/07/26 08:52:23;;;;;;;1.95;1.10;;;;;;;22.97;58.67;96746.50;10426772;28;20052;-23
2022/07/26 08:57:23;;;;;;;2.17;1.20;;;;;;;22.97;59.25;96732.00;10423076;28;20041;-24
2022/07/26 09:02:38;;;;;;;2.23;1.23;;;;;;;23.21;58.21;96738.41;10429833;28;20306;-25
2022/07/26 09:07:39;;;;;;;0.90;0.90;;;;;;;23.27;58.11;96734.03;10420783;28;20411;-24
2022/07/26 09:12:40;;;;;;;1.67;1.30;;;;;;;23.14;58.53;96735.13;10423178;28;20041;-25
2022/07/26 09:17:43;;;;;;;2.08;1.20;;;;;;;23.06;58.93;96736.94;10424431;28;20044;-22
2022/07/26 09:22:56;;;;;;;1.00;0.90;;;;;;;23.02;59.05;96739.56;10412124;28;20034;-24
2022/07/26 09:27:58;;;;;;;1.73;1.10;;;;;;;23.00;59.08;96752.38;10427812;28;20029;-26
2022/07/26 09:33:00;;;;;;;1.85;0.93;;;;;;;22.89;59.05;96733.84;10420342;28;20029;-22
2022/07/26 09:38:11;;;;;;;1.55;1.02;;;;;;;22.98;59.11;96746.44;10419247;28;20036;-24
2022/07/26 09:43:15;;;;;;;2.22;1.15;;;;;;;23.09;58.05;96739.47;10420232;28;20033;-24
2022/07/26 09:48:26;;;;;;;1.20;1.10;;;;;;;23.26;57.31;96737.47;10421130;28;20069;-24
2022/07/26 09:53:37;;;;;;;1.00;1.00;;;;;;;23.19;57.93;96735.03;10422954;28;20018;-24
2022/07/26 09:58:38;;;;;;;1.08;0.80;;;;;;;23.10;58.43;96736.03;10417632;28;20037;-24
2022/07/26 10:03:38;;;;;;;1.10;1.00;;;;;;;23.04;58.92;96743.78;10423571;28;20301;-23
2022/07/26 10:08:39;;;;;;;1.30;0.97;;;;;;;23.01;58.93;96743.88;10420627;28;20033;-25
2022/07/26 10:13:39;;;;;;;1.05;0.90;;;;;;;23.00;59.08;96747.25;10422701;28;20124;-26
2022/07/26 10:18:39;;;;;;;1.53;1.00;;;;;;;22.98;59.12;96753.28;10421646;28;20068;-24
2022/07/26 10:23:42;;;;;;;1.13;1.00;;;;;;;22.98;59.19;96745.63;10419019;28;20087;-25
2022/07/26 10:28:42;;;;;;;2.40;0.90;;;;;;;23.15;57.83;96747.03;10417546;28;20044;-23
2022/07/26 10:33:47;;;;;;;1.87;1.00;;;;;;;23.30;57.80;96738.22;10415565;28;20042;-24
2022/07/26 10:39:02;;;;;;;0.90;0.90;;;;;;;23.18;58.25;96743.56;10420914;28;20037;-24
2022/07/26 10:44:19;;;;;;;1.20;1.08;;;;;;;23.09;58.56;96742.03;10417018;28;20411;-24
2022/07/26 10:49:36;;;;;;;3.03;1.40;;;;;;;23.05;58.96;96747.19;10424392;28;20041;-23
2022/07/26 10:54:54;;;;;;;;;;;;;;;23.01;59.01;96741.31;10419944;28;20248;-24
2022/07/26 10:59:56;;;;;;;18.05;6.40;;;;;;;22.97;59.26;96737.09;10417713;28;19917;-24
2022/07/26 11:05:12;;;;;;;15.93;3.90;;;;;;;22.97;59.18;96734.56;10419783;28;20043;-24
2022/07/26 11:10:12;;;;;;;12.15;4.13;;;;;;;23.04;56.91;96733.59;10419815;28;20026;-24
2022/07/26 11:15:17;;;;;;;4.07;2.70;;;;;;;23.28;56.63;96728.06;10418704;28;20403;-24
2022/07/26 11:20:24;;;;;;;8.65;3.53;;;;;;;23.24;56.42;96723.88;10417890;28;20426;-24
2022/07/26 11:25:25;;;;;;;9.50;5.03;;;;;;;23.17;57.68;96716.34;10417716;28;20040;-24
2022/07/26 11:30:26;;;;;;;8.70;3.42;;;;;;;23.10;58.24;96713.03;10415257;28;20048;-24
2022/07/26 11:35:26;;;;;;;10.32;2.78;;;;;;;23.03;58.52;96716.56;10414310;28;20396;-24
2022/07/26 11:40:46;;;;;;;6.50;2.13;;;;;;;23.00;58.86;96716.63;10417777;28;20115;-25
2022/07/26 11:45:51;;;;;;;6.97;2.40;;;;;;;23.01;58.71;96718.31;10408598;28;20422;-23
2022/07/26 11:51:07;;;;;;;6.18;2.42;;;;;;;23.02;58.58;96699.56;10415635;28;20124;-25
2022/07/26 11:56:21;;;;;;;4.47;1.70;;;;;;;23.15;56.05;96695.13;10413398;28;20358;-23
2022/07/26 12:01:23;;;;;;;6.30;2.30;;;;;;;23.36;54.80;96695.53;10413273;28;20381;-22
2022/07/26 12:06:25;;;;;;;8.77;1.92;;;;;;;23.24;56.39;96695.75;10417318;28;20283;-24
2022/07/26 12:11:40;;;;;;;6.13;2.22;;;;;;;23.11;57.77;96689.19;10413086;28;20013;-27
2022/07/26 12:16:45;;;;;;;6.95;2.08;;;;;;;23.05;58.33;96689.28;10413105;28;20573;-26
2022/07/26 12:21:48;;;;;;;5.47;2.03;;;;;;;23.02;58.62;96686.81;10415080;28;20041;-24
2022/07/26 12:27:03;;;;;;;3.17;1.50;;;;;;;23.01;58.62;96690.22;10410701;28;20033;-24
2022/07/26 12:32:13;;;;;;;6.75;1.98;;;;;;;22.99;58.70;96689.41;10415102;28;20575;-26
2022/07/26 12:37:16;;;;;;;3.55;1.52;;;;;;;22.98;58.03;96681.78;10421786;28;20214;-24
2022/07/26 12:42:25;;;;;;;5.00;1.60;;;;;;;23.24;56.03;96682.16;10416730;28;20044;-25
2022/07/26 12:47:25;;;;;;;4.18;1.77;;;;;;;23.31;56.80;96674.34;10413329;28;20029;-27
2022/07/26 12:52:26;;;;;;;2.40;1.63;;;;;;;23.18;57.57;96674.63;10415779;28;20033;-24
2022/07/26 12:57:26;;;;;;;3.40;1.30;;;;;;;23.10;57.87;96679.84;10416834;28;20370;-25
2022/07/26 13:02:27;;;;;;;6.28;1.33;;;;;;;23.03;58.77;96669.75;10419128;28;20862;-24
2022/07/26 13:07:27;;;;;;;7.03;1.37;;;;;;;23.03;58.57;96672.31;10419749;28;20059;-25
2022/07/26 13:12:27;;;;;;;2.93;1.20;;;;;;;23.01;58.61;96657.03;10413864;28;20029;-24
2022/07/26 13:17:28;;;;;;;3.47;1.07;;;;;;;23.01;58.41;96661.28;10409967;28;20033;-22
2022/07/26 13:22:28;;;;;;;2.43;1.30;;;;;;;23.07;55.97;96640.75;10414436;28;20038;-24
2022/07/26 13:27:29;;;;;;;2.80;1.30;;;;;;;23.29;53.61;96654.81;10419238;28;20052;-24
2022/07/26 13:32:29;;;;;;;3.63;1.60;;;;;;;23.31;55.70;96647.97;10416999;28;20290;-23
2022/07/26 13:37:30;;;;;;;2.38;1.00;;;;;;;23.13;57.22;96646.56;10420263;28;20025;-24
2022/07/26 13:42:30;;;;;;;2.93;1.67;;;;;;;23.02;57.89;96630.63;10422318;28;20037;-24
2022/07/26 13:47:30;;;;;;;2.57;1.50;;;;;;;23.05;57.79;96643.31;10421786;28;20295;-24
2022/07/26 13:52:31;;;;;;;2.53;1.07;;;;;;;23.04;58.03;96641.66;10417146;28;20037;-25
2022/07/26 13:57:31;;;;;;;2.00;1.00;;;;;;;23.00;58.33;96634.06;10408834;28;20518;-27
2022/07/26 14:02:32;;;;;;;2.60;1.10;;;;;;;22.82;58.27;96604.59;10424599;28;20047;-24
2022/07/26 14:07:32;;;;;;;2.38;1.08;;;;;;;23.12;55.87;96624.47;10418634;28;20152;-24
2022/07/26 14:12:32;;;;;;;1.67;1.00;;;;;;;23.27;53.86;96625.91;10420991;28;20033;-25
2022/07/26 14:17:33;;;;;;;1.73;1.10;;;;;;;23.28;56.50;96630.97;10419740;28;20507;-24
2022/07/26 14:22:33;;;;;;;1.87;1.10;;;;;;;23.13;57.81;96631.25;10420837;28;20634;-23
2022/07/26 14:27:33;;;;;;;2.17;1.00;;;;;;;23.06;58.16;96636.50;10425878;28;20773;-25
2022/07/26 14:32:34;;;;;;;2.87;1.10;;;;;;;23.03;58.20;96634.84;10418953;28;20033;-23
2022/07/26 14:37:35;;;;;;;1.92;1.10;;;;;;;23.02;58.20;96633.19;10423707;28;20300;-24
2022/07/26 14:42:35;;;;;;;2.40;1.88;;;;;;;23.04;58.62;96635.69;10418250;28;20115;-23
2022/07/26 14:47:36;;;;;;;3.47;1.63;;;;;;;23.02;58.27;96640.84;10416905;28;20124;-24
2022/07/26 14:52:39;;;;;;;1.15;0.90;;;;;;;23.18;55.30;96641.41;10416380;28;20034;-24
2022/07/26 14:57:40;;;;;;;2.45;1.20;;;;;;;23.38;53.69;96644.38;10419390;28;20036;-23
2022/07/26 15:02:46;;;;;;;2.63;1.00;;;;;;;23.20;55.75;96626.88;10422470;28;20038;-24
2022/07/26 15:07:46;;;;;;;1.83;0.98;;;;;;;23.14;57.63;96634.66;10416593;28;20057;-24
2022/07/26 15:12:47;;;;;;;2.23;0.70;;;;;;;23.08;57.79;96622.81;10417643;28;20052;-25
2022/07/26 15:17:47;;;;;;;2.37;1.17;;;;;;;23.05;57.97;96633.09;10414591;28;20083;-24
2022/07/26 15:22:48;;;;;;;2.10;1.20;;;;;;;23.03;58.21;96622.09;10413362;28;20379;-24
2022/07/26 15:27:49;;;;;;;1.53;0.83;;;;;;;23.02;58.25;96619.56;10417801;28;20044;-24
2022/07/26 15:32:49;;;;;;;2.63;0.98;;;;;;;22.99;58.30;96619.63;10415075;28;20148;-25
2022/07/26 15:37:50;;;;;;;2.03;1.10;;;;;;;23.23;53.94;96617.44;10420893;28;20037;-24
2022/07/26 15:42:51;;;;;;;2.93;0.90;;;;;;;23.29;54.91;96604.56;10414754;28;20044;-24
2022/07/26 15:47:51;;;;;;;2.53;1.40;;;;;;;23.21;56.22;96603.88;10414174;28;20299;-24
2022/07/26 15:52:52;;;;;;;1.70;0.70;;;;;;;23.10;57.20;96604.94;10414664;28;20041;-23
2022/07/26 15:57:52;;;;;;;1.10;0.82;;;;;;;23.07;57.07;96598.16;10409168;28;20515;-24
2022/07/26 16:02:52;;;;;;;2.58;0.80;;;;;;;23.05;57.75;96597.34;10393924;28;20045;-23
2022/07/26 16:07:53;;;;;;;21.35;4.68;;;;;;;23.02;58.65;96599.13;10395387;28;20025;-23
2022/07/26 16:12:53;;;;;;;17.30;3.50;;;;;;;23.02;58.67;96597.44;10405196;28;20398;-23
2022/07/26 16:17:54;;;;;;;14.00;3.47;;;;;;;23.05;57.43;96589.69;10397506;28;20283;-23
2022/07/26 16:22:54;;;;;;;3.70;1.70;;;;;;;23.30;53.96;96588.34;10400839;28;20708;-25
2022/07/26 16:27:55;;;;;;;2.33;1.15;;;;;;;23.27;56.08;96573.09;10401112;28;20025;-23
2022/07/26 16:32:55;;;;;;;1.17;1.05;;;;;;;23.19;56.89;96580.09;10396784;28;20025;-23
2022/07/26 16:37:55;;;;;;;3.53;1.20;;;;;;;23.10;57.86;96584.50;10396813;28;20029;-24
2022/07/26 16:42:56;;;;;;;3.60;1.30;;;;;;;23.08;57.80;96581.13;10404730;28;20028;-24
2022/07/26 16:47:56;;;;;;;2.57;1.50;;;;;;;23.04;58.18;96577.81;10414008;28;20037;-24
2022/07/26 16:52:57;;;;;;;6.60;1.83;;;;;;;23.03;58.48;96577.81;10405332;28;20032;-24
2022/07/26 16:57:57;;;;;;;5.03;1.55;;;;;;;23.02;58.61;96579.56;10404897;28;20483;-25
2022/07/26 17:02:57;;;;;;;6.93;1.70;;;;;;;23.15;56.17;96577.63;10419058;28;20044;-23
2022/07/26 17:07:58;;;;;;;7.57;1.92;;;;;;;23.38;51.32;96565.19;10419091;28;20295;-24
2022/07/26 17:12:58;;;;;;;2.70;1.53;;;;;;;23.37;53.85;96576.28;10416057;28;20522;-24
2022/07/26 17:17:59;;;;;;;2.75;2.25;;;;;;;23.43;53.07;96577.00;10417048;28;20313;-23
2022/07/26 17:22:59;;;;;;;2.65;1.10;;;;;;;23.29;53.94;96584.13;10421382;28;20143;-23
2022/07/26 17:28:00;;;;;;;6.77;1.00;;;;;;;23.25;55.33;96577.38;10418109;28;20029;-24
2022/07/26 17:33:00;;;;;;;4.10;1.00;;;;;;;23.61;50.63;96583.41;10422226;28;20287;-30
2022/07/26 17:38:00;;;;;;;2.63;1.03;;;;;;;23.54;49.61;96577.59;10425215;28;20032;-24
2022/07/26 17:43:01;;;;;;;1.60;0.90;;;;;;;23.48;51.44;96577.72;10415344;28;20318;-24
2022/07/26 17:48:01;;;;;;;0.80;0.50;;;;;;;23.81;43.83;96571.03;10420138;28;20575;-23
2022/07/26 17:53:02;;;;;;;1.60;0.70;;;;;;;23.70;44.79;96584.06;10423043;28;20294;-23
2022/07/26 17:58:02;;;;;;;1.58;0.93;;;;;;;23.65;47.42;96578.19;10415844;28;20020;-24
2022/07/26 18:03:03;;;;;;;2.87;0.80;;;;;;;23.49;46.10;96586.25;10414840;28;20442;-24
2022/07/26 18:08:04;;;;;;;5.75;1.08;;;;;;;23.53;48.59;96590.41;10413842;28;20279;-24
2022/07/26 18:13:04;;;;;;;1.35;0.60;;;;;;;23.51;47.37;96585.34;10404817;28;20025;-24
2022/07/26 18:18:06;;;;;;;1.50;0.63;;;;;;;23.28;50.99;96585.00;10380934;28;20037;-24
2022/07/26 18:23:07;;;;;;;1.58;0.80;;;;;;;23.34;47.71;96579.72;10372565;28;23041;-24
2022/07/26 18:28:08;;;;;;;1.35;0.70;;;;;;;23.32;53.75;96586.59;10402139;28;20055;-24
2022/07/26 18:33:10;;;;;;;2.35;0.90;;;;;;;23.56;44.55;96587.81;10407097;28;20029;-25
2022/07/26 18:38:11;;;;;;;1.67;0.70;;;;;;;23.71;43.29;96590.00;10422185;28;20037;-24
2022/07/26 18:43:11;;;;;;;0.98;0.60;;;;;;;23.46;50.11;96581.19;10403051;28;20471;-25
2022/07/26 18:48:12;;;;;;;4.15;0.85;;;;;;;23.27;50.65;96578.22;10415023;28;20041;-23
2022/07/26 18:53:12;;;;;;;1.40;0.73;;;;;;;23.57;44.07;96562.19;10400920;28;20048;-23
2022/07/26 18:58:13;;;;;;;2.90;0.80;;;;;;;23.71;44.30;96592.56;10403461;28;20797;-25
2022/07/26 19:18:11;;;;;;;1.30;0.80;;;;;;;23.92;43.21;96613.38;10553113;27;20465;-23
2022/07/26 19:23:11;;;;;;;2.17;0.88;;;;;;;23.84;43.29;96617.81;10528430;28;20059;-23
2022/07/26 19:28:12;;;;;;;1.30;1.13;;;;;;;23.60;48.40;96636.28;10530964;28;20119;-24
2022/07/26 19:33:13;;;;;;;1.07;0.70;;;;;;;23.35;52.76;96637.66;10522874;28;20024;-24
2022/07/26 19:38:13;;;;;;;2.45;0.80;;;;;;;23.21;54.57;96642.19;10515367;28;20040;-24
2022/07/26 19:43:13;;;;;;;4.28;0.80;;;;;;;23.17;55.11;96642.28;10521690;28;20085;-24
2022/07/26 19:48:14;;;;;;;0.73;0.60;;;;;;;23.13;55.40;96651.69;10512686;28;20047;-25
2022/07/26 19:53:14;;;;;;;3.28;1.10;;;;;;;23.14;52.05;96658.50;10520270;28;20466;-24
2022/07/26 19:58:15;;;;;;;3.13;1.07;;;;;;;23.43;46.22;96671.56;10518415;28;20032;-24
2022/07/26 20:03:15;;;;;;;0.90;0.70;;;;;;;23.42;48.94;96666.47;10520183;28;20058;-24
2022/07/26 20:08:15;;;;;;;1.53;0.90;;;;;;;23.26;53.68;96671.06;10520655;28;20127;-22
2022/07/26 20:13:16;;;;;;;1.07;0.90;;;;;;;23.14;54.80;96671.28;10516295;28;20546;-28
2022/07/26 20:18:23;;;;;;;1.35;0.57;;;;;;;23.10;55.31;96677.28;10500131;28;20172;-24
2022/07/26 20:23:24;;;;;;;5.10;0.90;;;;;;;23.08;55.28;96681.56;10497031;28;20064;-24
2022/07/26 20:28:24;;;;;;;1.60;1.00;;;;;;;23.02;55.91;96674.03;10505009;28;20079;-25
2022/07/26 21:00:08;;;;;;;1.60;1.27;;;;;;;20.90;53.00;96694.03;10565266;27;20365;-30
2022/07/26 21:05:09;;;;;;;1.35;0.90;;;;;;;20.74;53.21;96697.56;10545003;28;20121;-31
2022/07/26 21:10:10;;;;;;;4.05;1.10;;;;;;;20.78;53.09;96703.44;10521544;28;20167;-30
2022/07/26 21:15:10;;;;;;;2.95;1.00;;;;;;;20.73;52.75;96695.84;10524567;28;20681;-30
2022/07/26 21:20:11;;;;;;;2.75;1.08;;;;;;;20.66;52.72;96706.09;10512598;28;20033;-31
2022/07/26 21:25:11;;;;;;;3.20;0.98;;;;;;;20.62;53.09;96701.91;10523389;28;20056;-31
2022/07/26 21:30:12;;;;;;;0.87;0.63;;;;;;;20.58;52.95;96706.19;10515993;28;20028;-30
2022/07/26 21:35:12;;;;;;;1.70;1.05;;;;;;;20.56;53.13;96710.41;10520969;28;20060;-30
2022/07/26 21:40:13;;;;;;;1.57;0.80;;;;;;;20.52;53.32;96706.22;10523693;28;20032;-30
2022/07/26 21:45:13;;;;;;;2.50;1.08;;;;;;;20.42;53.64;96703.75;10521382;28;20405;-29
2022/07/26 21:50:13;;;;;;;2.40;0.80;;;;;;;20.43;53.16;96705.44;10519918;28;20037;-30
2022/07/26 21:55:14;;;;;;;1.90;0.90;;;;;;;20.38;53.16;96706.34;10522546;28;20656;-29
2022/07/26 22:00:15;;;;;;;4.65;1.58;;;;;;;20.38;53.00;96706.34;10521628;28;20211;-30
2022/07/26 22:05:33;;;;;;;1.70;0.90;;;;;;;20.30;53.21;96708.09;10516967;28;20556;-30
2022/07/26 22:10:34;;;;;;;1.27;0.80;;;;;;;20.34;53.19;96708.06;10498744;28;20071;-31
2022/07/26 22:15:35;;;;;;;2.33;1.02;;;;;;;20.31;53.31;96713.19;10491883;28;20120;-30
2022/07/26 22:20:35;;;;;;;3.67;1.00;;;;;;;20.28;52.96;96710.63;10489678;28;20041;-35
2022/07/26 22:25:37;;;;;;;4.07;1.10;;;;;;;20.25;52.44;96712.38;10493477;28;20331;-31
2022/07/26 22:30:38;;;;;;;3.20;1.13;;;;;;;20.19;53.39;96720.06;10488548;28;20058;-29
2022/07/26 22:35:39;;;;;;;1.90;0.93;;;;;;;20.16;53.55;96722.59;10490537;28;20051;-30
2022/07/26 22:40:40;;;;;;;2.15;1.20;;;;;;;20.09;53.32;96733.69;10492893;28;20042;-30
2022/07/26 22:45:41;;;;;;;2.60;1.10;;;;;;;20.05;53.61;96721.81;10490305;28;20410;-30
2022/07/26 22:50:41;;;;;;;1.42;0.80;;;;;;;20.11;53.44;96726.88;10486993;28;20095;-30
2022/07/26 22:55:42;;;;;;;1.35;1.25;;;;;;;20.08;53.74;96732.00;10492912;28;20570;-30
2022/07/26 23:00:42;;;;;;;2.25;0.60;;;;;;;20.05;53.70;96732.84;10485081;28;20041;-29
2022/07/26 23:05:43;;;;;;;0.57;0.57;;;;;;;20.10;53.72;96731.09;10488495;28;20097;-31
2022/07/26 23:10:43;;;;;;;3.80;1.00;;;;;;;20.06;53.67;96726.06;10491645;28;20282;-30
2022/07/26 23:15:43;;;;;;;3.65;0.98;;;;;;;20.01;54.13;96727.75;10491074;28;20075;-31
2022/07/26 23:20:44;;;;;;;2.00;0.80;;;;;;;20.00;53.74;96723.53;10486320;28;20053;-30
2022/07/26 23:25:44;;;;;;;2.45;1.30;;;;;;;20.11;53.23;96712.47;10491136;28;20032;-30
2022/07/26 23:30:45;;;;;;;1.83;0.97;;;;;;;19.99;53.77;96717.59;10489736;28;20449;-29
2022/07/26 23:35:45;;;;;;;1.83;0.90;;;;;;;19.95;53.63;96715.09;10487488;28;20047;-30
2022/07/26 23:40:45;;;;;;;0.93;0.73;;;;;;;19.98;53.77;96720.13;10489288;28;20044;-30
2022/07/26 23:45:46;;;;;;;2.30;1.07;;;;;;;19.98;53.56;96715.06;10484688;28;20033;-29
2022/07/26 23:50:46;;;;;;;2.67;0.90;;;;;;;20.02;53.99;96717.56;10483543;28;20048;-30
2022/07/26 23:55:46;;;;;;;2.50;0.90;;;;;;;20.07;54.11;96710.81;10489784;28;20033;-30
